Time;durP1;ratioP1;P1;durP2;ratioP2;P2;SDS_P1;SDS_P2;PMS_P1;PMS_P2;Temp;Humidity;BMP_temperature;BMP_pressure;BME280_temperature;BME280_humidity;BME280_pressure;Samples;Min_cycle;Max_cycle;Signal;HPM_P1;HPM_P2
2022/02/02 00:02:04;;;;;;;3.57;2.97;;;8.40;99.90;;;;;;4998131;28;20455;-92
2022/02/02 00:04:33;;;;;;;6.47;3.03;;;8.40;99.90;;;;;;4996609;28;20454;-91
2022/02/02 00:07:08;;;;;;;5.07;3.00;;;8.30;99.90;;;;;;4997073;28;20482;-92
2022/02/02 00:09:35;;;;;;;5.60;3.70;;;8.30;99.90;;;;;;4978125;28;20892;-93
2022/02/02 00:12:13;;;;;;;4.67;3.23;;;8.30;99.90;;;;;;5003799;28;20599;-92
2022/02/02 00:14:51;;;;;;;5.23;3.27;;;8.30;99.90;;;;;;5014479;28;20447;-92
2022/02/02 00:17:31;;;;;;;8.23;3.17;;;8.40;99.90;;;;;;4999528;28;20506;-92
2022/02/02 00:20:05;;;;;;;7.60;3.33;;;8.50;99.90;;;;;;4996869;28;20489;-91
2022/02/02 00:22:37;;;;;;;6.27;3.30;;;8.50;99.90;;;;;;4998446;28;20994;-91
2022/02/02 00:25:12;;;;;;;10.10;2.90;;;8.40;99.90;;;;;;5000904;28;20455;-91
2022/02/02 00:27:42;;;;;;;3.37;2.40;;;8.40;99.90;;;;;;4998138;28;20454;-92
2022/02/02 00:30:14;;;;;;;4.00;2.93;;;8.40;99.90;;;;;;4998726;28;20479;-91
2022/02/02 00:35:32;;;;;;;6.53;2.27;;;8.50;99.90;;;;;;5009288;28;20536;-92
2022/02/02 00:37:59;;;;;;;2.93;2.23;;;8.50;99.90;;;;;;5015252;28;20482;-91
2022/02/02 00:40:26;;;;;;;3.60;2.20;;;8.50;99.90;;;;;;5019502;28;20467;-91
2022/02/02 00:42:54;;;;;;;2.83;2.00;;;8.50;99.90;;;;;;5014343;28;20446;-92
2022/02/02 00:45:27;;;;;;;3.50;1.90;;;8.60;99.90;;;;;;5004061;28;20439;-91
2022/02/02 00:47:54;;;;;;;3.53;2.43;;;8.60;99.90;;;;;;5008281;28;20540;-91
2022/02/02 00:50:20;;;;;;;3.63;2.20;;;8.60;99.90;;;;;;5015054;28;20463;-90
2022/02/02 00:52:51;;;;;;;2.90;2.10;;;8.60;99.90;;;;;;5013045;28;20452;-93
2022/02/02 00:55:18;;;;;;;2.63;1.93;;;8.60;99.90;;;;;;5004542;28;20466;-91
2022/02/02 00:57:44;;;;;;;4.50;2.60;;;8.70;99.90;;;;;;4999709;28;20463;-92
2022/02/02 01:00:15;;;;;;;3.10;2.10;;;8.60;99.90;;;;;;4996460;28;20471;-92
2022/02/02 01:02:41;;;;;;;3.20;2.30;;;8.70;99.90;;;;;;4995544;28;20466;-92
2022/02/02 01:05:09;;;;;;;4.37;2.07;;;8.70;99.90;;;;;;4995517;28;20443;-92
2022/02/02 01:07:54;;;;;;;2.77;2.47;;;8.60;99.90;;;;;;4995600;28;20454;-92
2022/02/02 01:10:27;;;;;;;4.83;2.23;;;8.60;99.90;;;;;;4995171;28;20479;-91
2022/02/02 01:13:07;;;;;;;5.60;1.73;;;8.60;99.90;;;;;;4995662;28;20473;-92
2022/02/02 01:18:35;;;;;;;4.00;2.73;;;8.60;99.90;;;;;;5009766;28;20864;-92
2022/02/02 01:21:04;;;;;;;2.23;1.63;;;8.70;99.90;;;;;;5011873;28;20455;-92
2022/02/02 01:29:00;;;;;;;6.20;2.30;;;8.70;99.90;;;;;;5008023;28;20445;-91
2022/02/02 01:31:28;;;;;;;3.10;2.03;;;8.80;99.90;;;;;;5014027;28;20490;-91
2022/02/02 01:33:55;;;;;;;7.00;2.20;;;8.80;99.90;;;;;;5015177;28;20465;-91
2022/02/02 01:36:22;;;;;;;5.60;2.40;;;8.80;99.90;;;;;;5010350;28;20471;-90
2022/02/02 01:38:51;;;;;;;5.97;2.80;;;8.70;99.90;;;;;;5016061;28;20466;-91
2022/02/02 01:41:29;;;;;;;3.20;1.97;;;8.80;99.90;;;;;;5017861;28;20479;-91
2022/02/02 01:44:07;;;;;;;5.00;2.20;;;8.80;99.90;;;;;;5001355;28;20443;-91
2022/02/02 01:46:37;;;;;;;4.70;2.73;;;8.80;99.90;;;;;;4998377;28;20446;-92
2022/02/02 01:55:02;;;;;;;4.03;2.10;;;8.80;99.90;;;;;;5149684;27;20444;-90
2022/02/02 01:57:50;;;;;;;3.73;1.73;;;8.80;99.90;;;;;;5154736;27;20436;-90
2022/02/02 02:00:19;;;;;;;4.40;2.63;;;8.90;99.90;;;;;;5135079;27;20469;-91
2022/02/02 02:02:46;;;;;;;7.50;2.77;;;8.80;99.90;;;;;;5151068;27;20457;-92
2022/02/02 02:05:13;;;;;;;5.30;2.27;;;8.80;99.90;;;;;;5149790;27;20468;-92
2022/02/02 02:07:41;;;;;;;7.20;2.33;;;8.90;99.90;;;;;;5133891;27;20456;-93
2022/02/02 02:10:08;;;;;;;3.37;2.63;;;8.90;99.90;;;;;;5121018;27;20505;-92
2022/02/02 02:12:45;;;;;;;2.87;2.50;;;8.90;99.90;;;;;;5112098;28;20457;-92
2022/02/02 02:15:14;;;;;;;4.80;2.60;;;9.00;99.90;;;;;;5111386;28;20446;-93
2022/02/02 02:17:40;;;;;;;9.87;3.27;;;9.00;99.90;;;;;;5118417;27;20448;-91
2022/02/02 02:20:08;;;;;;;4.90;2.83;;;9.00;99.90;;;;;;5132323;27;20460;-92
2022/02/02 02:22:39;;;;;;;5.23;3.77;;;8.90;99.90;;;;;;5124466;27;20456;-91
2022/02/02 02:25:07;;;;;;;5.90;3.07;;;8.80;99.90;;;;;;5129712;27;20441;-91
2022/02/02 02:27:34;;;;;;;13.33;4.00;;;8.70;99.90;;;;;;5129458;27;20449;-91
2022/02/02 02:30:07;;;;;;;5.00;2.80;;;8.50;99.90;;;;;;5117574;28;20996;-91
2022/02/02 02:33:04;;;;;;;5.30;3.03;;;8.30;99.90;;;;;;5112683;28;20450;-91
2022/02/02 02:36:07;;;;;;;4.73;2.70;;;8.10;99.90;;;;;;5110011;28;20832;-91
2022/02/02 02:57:49;;;;;;;8.73;4.97;;;7.60;99.90;;;;;;5110844;28;20430;-87
2022/02/02 03:00:29;;;;;;;11.13;5.37;;;7.70;99.90;;;;;;5132189;28;20457;-88
2022/02/02 03:30:25;;;;;;;9.83;4.70;;;8.10;99.90;;;;;;5138450;27;20477;-89
2022/02/02 03:34:32;;;;;;;8.87;4.30;;;8.10;99.90;;;;;;5128848;27;20453;-88
2022/02/02 03:49:43;;;;;;;12.27;4.90;;;8.20;99.90;;;;;;5116585;28;20461;-88
2022/02/02 03:55:03;;;;;;;5.60;3.37;;;8.10;99.90;;;;;;5140966;28;20444;-88
2022/02/02 03:57:37;;;;;;;8.27;3.60;;;8.10;99.90;;;;;;5140808;27;20421;-90
2022/02/02 04:00:25;;;;;;;7.63;4.00;;;8.10;99.90;;;;;;5132038;27;20476;-88
2022/02/02 04:05:38;;;;;;;9.53;3.50;;;8.10;99.90;;;;;;5138146;27;20421;-89
2022/02/02 04:08:25;;;;;;;13.83;4.50;;;8.10;99.90;;;;;;5140447;27;20448;-89
2022/02/02 04:10:51;;;;;;;12.27;3.57;;;8.20;99.90;;;;;;5137367;28;20484;-89
2022/02/02 04:13:35;;;;;;;8.10;2.97;;;8.20;99.90;;;;;;5127524;28;20422;-89
2022/02/02 04:52:09;;;;;;;7.93;4.73;;;8.20;99.90;;;;;;5113915;28;20555;-89
2022/02/02 04:54:42;;;;;;;10.83;4.27;;;8.30;99.90;;;;;;5114907;28;20536;-89
2022/02/02 04:57:45;;;;;;;13.30;4.30;;;8.30;99.90;;;;;;5117930;28;20445;-89
2022/02/02 05:00:53;;;;;;;11.43;3.90;;;8.30;99.90;;;;;;5096432;28;20466;-89
2022/02/02 05:06:13;;;;;;;8.43;3.60;;;8.20;99.90;;;;;;5115443;28;20821;-89
2022/02/02 05:08:46;;;;;;;10.30;3.43;;;8.20;99.90;;;;;;5115794;28;20445;-88
2022/02/02 05:11:28;;;;;;;8.67;2.80;;;8.20;99.90;;;;;;5115439;28;20509;-89
2022/02/02 05:14:53;;;;;;;14.43;4.43;;;8.20;99.90;;;;;;5115265;28;20560;-89
2022/02/02 05:17:10;;;;;;;7.13;3.60;;;8.10;99.90;;;;;;5138861;27;20442;-90
2022/02/02 05:20:05;;;;;;;11.83;4.23;;;8.10;99.90;;;;;;5107632;27;20470;-89
2022/02/02 05:52:57;;;;;;;9.30;4.67;;;8.20;99.90;;;;;;5091861;28;20437;-89
2022/02/02 05:55:25;;;;;;;10.67;3.40;;;8.10;99.90;;;;;;5118993;28;20460;-89
2022/02/02 05:57:56;;;;;;;10.63;4.30;;;8.10;99.90;;;;;;5118229;28;20444;-90
2022/02/02 06:00:23;;;;;;;12.53;3.97;;;8.00;99.90;;;;;;5115145;28;20458;-89
2022/02/02 06:02:55;;;;;;;15.37;3.97;;;8.00;99.90;;;;;;5114649;28;20449;-89
2022/02/02 06:05:26;;;;;;;9.13;3.70;;;8.00;99.90;;;;;;5114749;28;20450;-90
2022/02/02 06:07:56;;;;;;;11.90;5.03;;;8.00;99.90;;;;;;5114956;28;20445;-89
2022/02/02 06:10:24;;;;;;;7.30;2.67;;;8.00;99.90;;;;;;5115496;28;20461;-89
2022/02/02 06:12:54;;;;;;;7.90;3.27;;;8.10;99.90;;;;;;5113819;28;20454;-89
2022/02/02 06:15:22;;;;;;;9.13;3.53;;;8.10;99.90;;;;;;5115083;28;20477;-89
2022/02/02 06:17:51;;;;;;;8.00;4.53;;;8.20;99.90;;;;;;5123900;28;20456;-90
2022/02/02 06:20:18;;;;;;;11.43;3.93;;;8.30;99.90;;;;;;5138864;27;20481;-91
2022/02/02 06:22:53;;;;;;;7.97;3.27;;;8.30;99.90;;;;;;5128903;27;20441;-89
2022/02/02 06:25:24;;;;;;;13.27;4.13;;;8.40;99.90;;;;;;5138145;27;20432;-86
2022/02/02 06:27:59;;;;;;;10.83;4.10;;;8.40;99.90;;;;;;5110260;28;20447;-88
2022/02/02 06:30:27;;;;;;;10.50;3.50;;;8.50;99.90;;;;;;5105956;28;20887;-88
2022/02/02 06:33:03;;;;;;;12.53;3.87;;;8.50;99.90;;;;;;5102985;28;20431;-88
2022/02/02 06:35:31;;;;;;;7.60;3.77;;;8.50;99.90;;;;;;5122185;27;20430;-86
2022/02/02 06:37:58;;;;;;;11.23;3.43;;;8.50;99.90;;;;;;5129320;27;20489;-88
2022/02/02 06:40:26;;;;;;;9.07;3.93;;;8.60;99.90;;;;;;5137269;27;20445;-89
2022/02/02 06:42:54;;;;;;;11.13;3.53;;;8.60;99.90;;;;;;5135003;27;20421;-90
2022/02/02 06:45:23;;;;;;;12.67;5.47;;;8.60;99.90;;;;;;5118686;27;20452;-89
2022/02/02 06:47:53;;;;;;;11.27;3.90;;;8.60;99.90;;;;;;5107570;28;20457;-90
2022/02/02 06:50:25;;;;;;;9.97;3.63;;;8.60;99.90;;;;;;5106145;28;20537;-89
2022/02/02 06:53:07;;;;;;;14.43;3.20;;;8.60;99.90;;;;;;5108146;28;20477;-89
2022/02/02 06:55:49;;;;;;;12.43;4.13;;;8.60;99.90;;;;;;5109162;28;20456;-89
2022/02/02 06:58:36;;;;;;;11.67;3.90;;;8.70;99.90;;;;;;5108391;28;20446;-89
2022/02/02 07:01:13;;;;;;;9.57;4.07;;;8.60;99.90;;;;;;5111260;28;20446;-89
2022/02/02 07:03:59;;;;;;;13.43;4.40;;;8.60;99.90;;;;;;5126218;28;20445;-88
2022/02/02 07:06:38;;;;;;;9.40;4.67;;;8.60;99.90;;;;;;5122966;28;20489;-88
2022/02/02 07:09:19;;;;;;;9.40;4.00;;;8.70;99.90;;;;;;5114397;28;20462;-89
2022/02/02 07:12:04;;;;;;;12.00;4.30;;;8.70;99.90;;;;;;5111660;28;20848;-89
2022/02/02 07:14:44;;;;;;;11.80;4.93;;;8.70;99.90;;;;;;5098439;28;20947;-89
2022/02/02 07:17:31;;;;;;;11.97;5.00;;;8.60;99.90;;;;;;5117882;28;20502;-88
2022/02/02 07:20:07;;;;;;;16.43;6.50;;;8.60;99.90;;;;;;5120328;28;20545;-88
2022/02/02 07:23:00;;;;;;;13.00;4.33;;;8.70;99.90;;;;;;5118620;28;20505;-89
2022/02/02 07:25:58;;;;;;;16.53;5.40;;;8.70;99.90;;;;;;5118020;28;20454;-89
2022/02/02 07:28:30;;;;;;;11.93;4.27;;;8.70;99.90;;;;;;5117359;28;20457;-88
2022/02/02 07:31:09;;;;;;;7.40;3.60;;;8.70;99.90;;;;;;5122063;28;20445;-89
2022/02/02 07:33:43;;;;;;;11.03;4.20;;;8.70;99.90;;;;;;5140295;28;20426;-88
2022/02/02 07:36:16;;;;;;;9.47;4.00;;;8.70;99.90;;;;;;5139615;28;20436;-88
2022/02/02 07:38:53;;;;;;;13.27;3.77;;;8.80;99.90;;;;;;5135885;27;20471;-89
2022/02/02 07:41:26;;;;;;;12.60;5.07;;;8.80;99.90;;;;;;5123138;28;20852;-88
2022/02/02 07:44:00;;;;;;;12.33;5.27;;;8.80;99.90;;;;;;5122252;27;20936;-90
2022/02/02 07:46:29;;;;;;;15.43;3.77;;;8.90;99.90;;;;;;5118107;28;20444;-88
2022/02/02 07:48:56;;;;;;;14.70;4.60;;;8.90;99.90;;;;;;5119685;28;20478;-87
2022/02/02 07:51:25;;;;;;;9.00;4.47;;;8.80;99.90;;;;;;5116693;28;20462;-87
2022/02/02 07:53:58;;;;;;;13.80;4.80;;;8.70;99.90;;;;;;5116194;28;20454;-87
2022/02/02 07:56:29;;;;;;;19.00;3.60;;;8.50;99.90;;;;;;5117349;28;20450;-87
2022/02/02 07:59:11;;;;;;;10.37;5.33;;;8.50;99.90;;;;;;5116915;28;20497;-89
2022/02/02 08:01:39;;;;;;;10.70;5.90;;;8.40;99.90;;;;;;5117941;28;20541;-89
2022/02/02 08:04:06;;;;;;;11.47;5.10;;;8.40;99.90;;;;;;5125515;28;20425;-88
2022/02/02 08:06:35;;;;;;;9.40;3.93;;;8.30;99.90;;;;;;5124465;28;20461;-89
2022/02/02 08:09:02;;;;;;;17.27;6.77;;;8.30;99.90;;;;;;5122683;28;20532;-89
2022/02/02 08:11:33;;;;;;;17.30;5.93;;;8.30;99.90;;;;;;5121595;28;20849;-88
2022/02/02 08:14:01;;;;;;;12.10;4.97;;;8.30;99.90;;;;;;5116988;28;20468;-89
2022/02/02 08:16:30;;;;;;;13.50;4.47;;;8.40;99.90;;;;;;5117898;28;20453;-89
2022/02/02 08:19:00;;;;;;;13.30;5.73;;;8.40;99.90;;;;;;5132000;27;20493;-88
2022/02/02 08:21:26;;;;;;;11.73;4.60;;;8.40;99.90;;;;;;5123414;28;20442;-88
2022/02/02 08:23:53;;;;;;;12.40;4.37;;;8.40;99.90;;;;;;5120743;28;20477;-88
2022/02/02 08:26:21;;;;;;;10.17;4.23;;;8.40;99.90;;;;;;5118188;27;20962;-88
2022/02/02 08:28:49;;;;;;;10.27;4.87;;;8.40;99.90;;;;;;5118204;27;20477;-89
2022/02/02 08:31:16;;;;;;;12.03;5.27;;;8.40;99.90;;;;;;5119672;28;20441;-88
2022/02/02 08:33:48;;;;;;;15.23;4.67;;;8.40;99.90;;;;;;5118318;28;20442;-87
2022/02/02 08:36:19;;;;;;;15.90;4.30;;;8.50;99.90;;;;;;5133374;27;20464;-86
2022/02/02 08:38:58;;;;;;;12.20;4.40;;;8.50;99.90;;;;;;5138432;27;20438;-87
2022/02/02 08:41:31;;;;;;;12.33;4.90;;;8.50;99.90;;;;;;5137832;27;20464;-88
2022/02/02 08:44:02;;;;;;;12.63;5.20;;;8.60;99.90;;;;;;5139245;27;20437;-86
2022/02/02 08:46:33;;;;;;;9.13;4.73;;;8.70;99.90;;;;;;5132592;27;20977;-87
2022/02/02 08:49:03;;;;;;;6.90;3.47;;;8.70;99.90;;;;;;5138288;27;20465;-86
2022/02/02 08:51:37;;;;;;;11.50;3.80;;;8.90;99.90;;;;;;5138900;27;20477;-87
2022/02/02 08:54:13;;;;;;;5.77;2.80;;;8.90;99.90;;;;;;5131590;27;20444;-88
2022/02/02 08:59:58;;;;;;;8.17;4.10;;;8.80;99.90;;;;;;5101530;28;20558;-90
2022/02/02 09:02:29;;;;;;;7.30;3.23;;;8.70;99.90;;;;;;5130764;28;20442;-82
2022/02/02 09:07:41;;;;;;;14.70;5.00;;;8.70;99.90;;;;;;5121665;28;20536;-83
2022/02/02 09:10:12;;;;;;;7.67;4.40;;;8.70;99.90;;;;;;5122245;28;20458;-84
2022/02/02 09:23:35;;;;;;;14.20;6.53;;;9.10;99.90;;;;;;5092279;28;20570;-87
2022/02/02 09:32:07;;;;;;;13.87;5.50;;;9.40;99.90;;;;;;5110949;28;20545;-87
2022/02/02 09:34:34;;;;;;;14.33;4.80;;;9.40;99.90;;;;;;5115157;28;20445;-87
2022/02/02 09:37:01;;;;;;;12.30;6.00;;;9.60;99.90;;;;;;5115778;28;20442;-88
2022/02/02 09:39:35;;;;;;;10.40;4.70;;;9.70;99.90;;;;;;5116531;28;20434;-85
2022/02/02 09:42:04;;;;;;;16.03;4.57;;;9.70;99.90;;;;;;5117830;28;20457;-86
2022/02/02 09:44:36;;;;;;;10.13;4.70;;;9.80;99.90;;;;;;5112960;28;20460;-86
2022/02/02 09:47:08;;;;;;;10.77;4.53;;;10.20;99.90;;;;;;5102702;28;20494;-87
2022/02/02 09:49:44;;;;;;;10.97;4.40;;;10.80;99.90;;;;;;5106893;28;20534;-86
2022/02/02 09:52:14;;;;;;;15.50;4.90;;;11.20;99.90;;;;;;5105713;28;20488;-87
2022/02/02 09:54:50;;;;;;;12.97;4.13;;;11.00;99.90;;;;;;5102198;28;20457;-86
2022/02/02 10:03:20;;;;;;;10.23;5.10;;;10.40;99.90;;;;;;5062250;28;20528;-87
2022/02/02 10:05:59;;;;;;;14.87;5.40;;;10.50;99.90;;;;;;5114136;28;20478;-87
2022/02/02 10:14:30;;;;;;;11.10;3.70;;;10.90;99.90;;;;;;5109070;28;20442;-86
2022/02/02 10:16:57;;;;;;;11.97;3.93;;;11.30;99.90;;;;;;5121950;28;20443;-85
2022/02/02 10:19:32;;;;;;;9.97;4.90;;;12.10;99.90;;;;;;5129658;28;20544;-87
2022/02/02 10:21:59;;;;;;;16.80;4.80;;;13.60;99.60;;;;;;5114214;28;20442;-86
2022/02/02 10:24:44;;;;;;;14.50;5.17;;;14.80;96.90;;;;;;5117680;28;20439;-87
2022/02/02 10:27:22;;;;;;;11.60;4.50;;;15.90;93.80;;;;;;5110025;28;20445;-87
2022/02/02 10:29:50;;;;;;;8.33;4.67;;;15.70;92.20;;;;;;5109987;28;20529;-86
2022/02/02 10:32:36;;;;;;;7.40;3.73;;;16.20;91.90;;;;;;5130221;28;20473;-86
2022/02/02 10:35:03;;;;;;;9.70;3.30;;;18.00;90.40;;;;;;5133324;28;20452;-86
2022/02/02 10:37:31;;;;;;;9.37;3.80;;;17.90;86.40;;;;;;5129417;28;20434;-87
2022/02/02 10:39:58;;;;;;;6.50;3.50;;;16.90;86.90;;;;;;5123484;28;20554;-86
2022/02/02 10:42:38;;;;;;;10.00;4.23;;;15.70;88.30;;;;;;5114657;28;20442;-87
2022/02/02 10:45:25;;;;;;;12.17;3.50;;;14.40;90.70;;;;;;5127922;28;20459;-86
2022/02/02 10:48:01;;;;;;;13.20;4.80;;;13.40;92.50;;;;;;5118590;28;21167;-87
2022/02/02 10:50:34;;;;;;;12.90;6.73;;;12.70;93.80;;;;;;5117873;28;20464;-88
2022/02/02 10:53:27;;;;;;;11.33;4.40;;;12.10;95.30;;;;;;5140552;27;20469;-88
2022/02/02 10:56:18;;;;;;;11.77;4.43;;;11.80;96.20;;;;;;5120406;28;21222;-88
2022/02/02 11:01:37;;;;;;;12.53;3.80;;;11.80;97.30;;;;;;5125747;28;20444;-89
2022/02/02 11:06:49;;;;;;;13.73;4.80;;;12.40;97.00;;;;;;5118787;28;20475;-88
2022/02/02 11:09:20;;;;;;;10.97;4.37;;;12.50;96.00;;;;;;5118734;28;20881;-87
2022/02/02 11:11:48;;;;;;;18.20;6.03;;;12.60;95.40;;;;;;5120848;28;20446;-86
2022/02/02 11:14:27;;;;;;;10.87;4.27;;;12.20;95.10;;;;;;5115675;28;20453;-86
2022/02/02 11:17:00;;;;;;;15.40;4.57;;;12.20;95.20;;;;;;5112891;28;20448;-86
2022/02/02 11:19:33;;;;;;;15.73;5.60;;;12.40;95.00;;;;;;5121173;28;20457;-85
2022/02/02 11:22:22;;;;;;;16.07;4.77;;;13.00;94.80;;;;;;5129596;28;20434;-86
2022/02/02 11:24:49;;;;;;;7.80;4.07;;;14.90;92.60;;;;;;5118637;28;20452;-87
2022/02/02 11:27:37;;;;;;;9.43;4.10;;;15.00;90.50;;;;;;5111891;28;20437;-87
2022/02/02 11:30:07;;;;;;;17.43;5.50;;;14.40;90.90;;;;;;5108651;28;20979;-87
2022/02/02 11:32:43;;;;;;;11.30;4.70;;;14.70;91.90;;;;;;5111630;28;20469;-87
2022/02/02 11:35:37;;;;;;;17.27;6.03;;;15.90;89.20;;;;;;5115805;28;20456;-88
2022/02/02 11:38:07;;;;;;;13.43;3.80;;;15.70;87.90;;;;;;5114132;28;20546;-87
2022/02/02 11:40:41;;;;;;;9.60;4.13;;;14.90;88.50;;;;;;5119080;28;20469;-85
2022/02/02 11:43:13;;;;;;;15.80;4.80;;;14.00;90.40;;;;;;5116814;28;20448;-86
2022/02/02 11:45:55;;;;;;;12.60;4.30;;;13.50;91.40;;;;;;5110639;28;20466;-89
2022/02/02 11:49:04;;;;;;;12.67;4.20;;;13.20;92.10;;;;;;5113775;28;20453;-87
2022/02/02 11:51:38;;;;;;;15.77;4.17;;;13.70;92.00;;;;;;5107484;28;20798;-87
2022/02/02 11:54:07;;;;;;;12.90;6.33;;;14.60;91.10;;;;;;5122418;28;20478;-87
2022/02/02 11:57:17;;;;;;;15.07;5.30;;;16.10;90.30;;;;;;5131871;28;20805;-87
2022/02/02 11:59:56;;;;;;;12.17;5.03;;;16.80;84.00;;;;;;5106437;28;20530;-87
2022/02/02 12:02:52;;;;;;;8.90;3.63;;;15.50;83.90;;;;;;5113531;28;20488;-87
2022/02/02 12:05:34;;;;;;;11.57;4.30;;;14.00;86.70;;;;;;5107176;28;20817;-88
2022/02/02 12:08:11;;;;;;;13.97;3.93;;;13.10;90.40;;;;;;5106626;28;20516;-87
2022/02/02 12:10:53;;;;;;;10.50;3.73;;;12.60;91.60;;;;;;5109707;28;20970;-87
2022/02/02 12:28:04;;;;;;;10.87;3.40;;;14.60;88.90;;;;;;5111375;28;20434;-87
2022/02/02 12:47:20;;;;;;;14.40;4.37;;;13.60;83.90;;;;;;5107779;28;20913;-87
2022/02/02 12:50:16;;;;;;;14.53;4.00;;;13.00;87.90;;;;;;5098157;28;20496;-87
2022/02/02 12:58:29;;;;;;;8.30;3.90;;;11.70;94.70;;;;;;5124148;28;20436;-86
2022/02/02 13:01:09;;;;;;;14.80;5.37;;;11.30;96.10;;;;;;5126271;28;20456;-87
2022/02/02 13:03:38;;;;;;;10.80;4.50;;;11.00;97.40;;;;;;5124253;28;20513;-87
2022/02/02 13:06:12;;;;;;;12.03;4.67;;;10.80;98.50;;;;;;5112115;28;20497;-87
2022/02/02 13:08:41;;;;;;;17.60;5.90;;;10.50;99.20;;;;;;5112136;28;20834;-86
2022/02/02 13:11:08;;;;;;;8.67;3.90;;;10.40;99.70;;;;;;5127827;28;20437;-86
2022/02/02 13:13:35;;;;;;;14.17;4.90;;;10.40;99.90;;;;;;5136868;27;20454;-85
2022/02/02 13:16:10;;;;;;;11.97;4.30;;;10.40;99.90;;;;;;5136764;27;20441;-86
2022/02/02 13:18:40;;;;;;;11.83;4.87;;;10.60;99.90;;;;;;5139051;27;20455;-85
2022/02/02 13:21:13;;;;;;;9.43;5.07;;;10.80;99.90;;;;;;5138568;27;20433;-86
2022/02/02 13:23:52;;;;;;;7.23;3.73;;;11.00;99.90;;;;;;5130006;28;20438;-85
2022/02/02 13:26:26;;;;;;;8.17;2.87;;;10.90;99.90;;;;;;5124666;28;20449;-86
2022/02/02 13:29:03;;;;;;;5.00;3.10;;;10.90;99.40;;;;;;5114198;28;20985;-86
2022/02/02 13:31:40;;;;;;;12.37;3.90;;;11.00;98.90;;;;;;5117909;28;20441;-87
2022/02/02 13:34:14;;;;;;;7.17;2.80;;;11.00;99.60;;;;;;5115893;28;20473;-87
2022/02/02 13:36:53;;;;;;;5.50;3.30;;;11.10;99.60;;;;;;5118127;28;20496;-86
2022/02/02 13:45:44;;;;;;;14.53;6.10;;;11.30;99.10;;;;;;5066400;28;20455;-87
2022/02/02 13:51:11;;;;;;;15.17;8.77;;;11.40;99.00;;;;;;5104228;28;20430;-87
2022/02/02 13:54:02;;;;;;;14.83;8.53;;;11.50;99.20;;;;;;5104452;28;20980;-86
2022/02/02 14:00:08;;;;;;;10.53;4.00;;;11.50;98.90;;;;;;5053979;28;20440;-87
2022/02/02 14:08:57;;;;;;;7.60;3.73;;;12.10;97.50;;;;;;5092938;28;20440;-86
2022/02/02 14:11:07;;;;;;;8.20;4.10;;;12.10;97.80;;;;;;5115817;28;20471;-87
2022/02/02 14:32:45;;;;;;;11.77;3.83;;;13.40;94.90;;;;;;5111307;28;20471;-87
2022/02/02 14:35:15;;;;;;;11.10;4.63;;;13.10;95.50;;;;;;5132121;28;20443;-86
2022/02/02 14:37:43;;;;;;;10.40;3.27;;;13.20;95.70;;;;;;5113354;28;20480;-86
2022/02/02 14:40:19;;;;;;;11.90;3.53;;;13.00;95.60;;;;;;5109521;28;21035;-87
2022/02/02 14:42:57;;;;;;;9.80;3.97;;;12.90;96.00;;;;;;5108360;28;20447;-88
2022/02/02 14:45:28;;;;;;;12.80;4.63;;;12.50;96.40;;;;;;5110097;28;20470;-88
2022/02/02 14:48:03;;;;;;;11.63;5.03;;;12.40;97.40;;;;;;5115468;28;20461;-86
2022/02/02 14:50:34;;;;;;;13.67;4.27;;;12.00;97.20;;;;;;5125317;28;21027;-85
2022/02/02 14:53:13;;;;;;;10.63;5.30;;;11.70;97.70;;;;;;5114724;28;20477;-86
2022/02/02 15:24:25;;;;;;;17.50;7.70;;;10.70;99.80;;;;;;5085836;28;20517;-89
2022/02/02 15:27:19;;;;;;;16.10;6.40;;;10.50;99.90;;;;;;5087020;28;20451;-88
2022/02/02 15:29:59;;;;;;;16.33;5.03;;;10.30;99.90;;;;;;5087894;28;20483;-90
2022/02/02 15:32:30;;;;;;;10.63;5.03;;;10.20;99.90;;;;;;5078219;28;20447;-90
2022/02/02 15:34:59;;;;;;;9.77;4.47;;;10.00;99.90;;;;;;5089705;28;20463;-89
2022/02/02 15:37:31;;;;;;;13.30;5.87;;;9.90;99.90;;;;;;5096662;28;20531;-89
2022/02/02 15:40:02;;;;;;;6.00;3.70;;;9.80;99.90;;;;;;5089997;28;20858;-90
2022/02/02 15:57:18;;;;;;;4.87;3.00;;;9.40;99.90;;;;;;5080085;28;20430;-89
2022/02/02 16:02:12;;;;;;;8.90;4.60;;;9.30;99.90;;;;;;5072830;28;20426;-88
2022/02/02 16:04:39;;;;;;;9.23;4.40;;;9.20;99.90;;;;;;5084995;28;20544;-88
2022/02/02 16:07:12;;;;;;;4.40;3.33;;;9.10;99.90;;;;;;5093162;28;20451;-87
2022/02/02 16:09:47;;;;;;;3.90;3.47;;;9.00;99.90;;;;;;5099233;28;20451;-88
2022/02/02 16:12:19;;;;;;;7.23;3.70;;;9.00;99.90;;;;;;5091261;28;20450;-87
2022/02/02 16:14:49;;;;;;;5.67;3.47;;;8.90;99.90;;;;;;5084358;28;20528;-88
2022/02/02 16:17:36;;;;;;;10.13;4.77;;;8.90;99.90;;;;;;5086955;28;20447;-89
2022/02/02 16:36:34;;;;;;;10.30;6.03;;;8.70;99.90;;;;;;5084458;28;20421;-89
2022/02/02 16:39:09;;;;;;;9.30;5.20;;;8.60;99.90;;;;;;5082452;28;20468;-88
2022/02/02 16:44:20;;;;;;;7.63;5.70;;;8.70;99.90;;;;;;5088035;28;20478;-89
2022/02/02 16:46:47;;;;;;;12.80;6.20;;;8.80;99.90;;;;;;5089993;28;20448;-89
2022/02/02 16:49:15;;;;;;;7.43;4.23;;;8.80;99.90;;;;;;5080997;28;20439;-90
2022/02/02 16:51:43;;;;;;;7.70;4.00;;;8.80;99.90;;;;;;5090684;28;20451;-88
2022/02/02 16:54:18;;;;;;;7.13;4.53;;;8.80;99.90;;;;;;5092295;28;20456;-88
2022/02/02 16:57:00;;;;;;;6.27;4.10;;;8.90;99.90;;;;;;5084475;28;20447;-89
2022/02/02 17:24:41;;;;;;;6.93;5.70;;;9.20;99.90;;;;;;5079005;28;20474;-84
2022/02/02 17:30:15;;;;;;;12.10;4.80;;;8.90;99.90;;;;;;5084357;28;20500;-84
2022/02/02 17:32:48;;;;;;;4.67;3.97;;;8.90;99.90;;;;;;5082122;28;20446;-90
2022/02/02 17:38:05;;;;;;;7.00;5.80;;;8.80;99.90;;;;;;5079543;28;20431;-89
2022/02/02 17:40:55;;;;;;;8.30;7.37;;;8.80;99.90;;;;;;5082619;28;20508;-89
2022/02/02 18:18:59;;;;;;;24.47;16.10;;;8.60;99.90;;;;;;5083186;28;20423;-93
2022/02/02 18:21:28;;;;;;;29.20;19.57;;;8.60;99.90;;;;;;5088631;28;20442;-92
2022/02/02 18:24:02;;;;;;;18.97;12.47;;;8.70;99.90;;;;;;5085853;28;20609;-93
2022/02/02 18:26:34;;;;;;;16.27;11.40;;;8.70;99.90;;;;;;5080608;28;20509;-93
2022/02/02 18:29:06;;;;;;;14.37;7.97;;;8.70;99.90;;;;;;5090642;28;20448;-92
2022/02/02 18:31:49;;;;;;;17.40;12.27;;;8.60;99.90;;;;;;5098512;28;20507;-91
2022/02/02 18:34:25;;;;;;;14.50;9.97;;;8.60;99.90;;;;;;5100323;28;20454;-93
2022/02/02 18:37:05;;;;;;;11.80;9.50;;;8.50;99.90;;;;;;5101540;28;20445;-93
2022/02/02 18:45:37;;;;;;;4.80;4.40;;;8.60;99.90;;;;;;5029557;28;20476;-92
2022/02/02 18:48:33;;;;;;;6.70;5.70;;;8.70;99.90;;;;;;5076201;28;20439;-91
2022/02/02 18:53:56;;;;;;;6.77;5.73;;;8.60;99.90;;;;;;5097421;28;20422;-91
2022/02/02 18:56:38;;;;;;;10.93;6.87;;;8.70;99.90;;;;;;5099740;28;20501;-92
2022/02/02 18:59:22;;;;;;;8.43;7.53;;;8.60;99.90;;;;;;5097430;28;20439;-90
2022/02/02 19:01:56;;;;;;;7.90;5.80;;;8.50;99.90;;;;;;5092278;28;20443;-91
2022/02/02 19:04:45;;;;;;;7.23;6.13;;;8.40;99.90;;;;;;5094174;28;20566;-91
2022/02/02 19:07:39;;;;;;;11.67;8.00;;;8.30;99.90;;;;;;5090767;28;20487;-91
2022/02/02 19:38:24;;;;;;;8.30;7.00;;;7.60;99.90;;;;;;5097092;28;20494;-90
2022/02/02 20:01:42;;;;;;;9.87;8.37;;;7.60;99.90;;;;;;5099485;28;20491;-91
2022/02/02 20:03:50;;;;;;;7.47;5.57;;;7.40;99.90;;;;;;5024779;28;20429;-92
2022/02/02 20:06:37;;;;;;;11.10;8.37;;;7.40;99.90;;;;;;5025581;28;20438;-91
2022/02/02 20:12:32;;;;;;;8.40;6.30;;;7.20;99.90;;;;;;5185805;27;20543;-91
2022/02/02 20:15:00;;;;;;;6.57;5.77;;;7.20;99.90;;;;;;5173535;27;20542;-90
2022/02/02 20:17:27;;;;;;;6.90;5.03;;;7.20;99.90;;;;;;5173957;27;20424;-91
2022/02/02 20:19:57;;;;;;;7.27;5.50;;;7.20;99.90;;;;;;5177327;27;20421;-91
2022/02/02 20:22:28;;;;;;;8.53;6.43;;;7.20;99.90;;;;;;5177362;27;20438;-91
2022/02/02 20:24:58;;;;;;;8.33;5.43;;;7.20;99.90;;;;;;5175149;27;20453;-89
2022/02/02 20:27:25;;;;;;;5.67;5.07;;;7.20;99.90;;;;;;5170371;27;20448;-91
2022/02/02 20:29:54;;;;;;;7.40;5.93;;;7.30;99.90;;;;;;5163448;27;20453;-90
2022/02/02 20:32:21;;;;;;;7.83;4.90;;;7.30;99.90;;;;;;5172842;27;20440;-91
2022/02/02 20:34:48;;;;;;;8.90;7.20;;;7.30;99.90;;;;;;5170121;27;20440;-89
2022/02/02 20:37:18;;;;;;;5.90;5.40;;;7.20;99.90;;;;;;5170419;27;20420;-92
2022/02/02 20:39:52;;;;;;;9.97;6.20;;;7.30;99.90;;;;;;5169722;27;20448;-90
2022/02/02 20:42:26;;;;;;;8.23;5.37;;;7.30;99.90;;;;;;5174384;27;20424;-90
2022/02/02 21:04:45;;;;;;;8.83;6.90;;;7.10;99.90;;;;;;5163581;27;20450;-91
2022/02/02 21:07:28;;;;;;;8.13;6.70;;;7.00;99.90;;;;;;5162076;27;20455;-92
2022/02/02 21:10:02;;;;;;;9.77;7.47;;;6.90;99.90;;;;;;5159187;27;20482;-92
2022/02/02 21:15:17;;;;;;;9.50;7.30;;;7.00;99.90;;;;;;5166841;27;20500;-92
2022/02/02 21:17:48;;;;;;;10.83;8.03;;;7.10;99.90;;;;;;5165286;27;20424;-91
2022/02/02 21:20:21;;;;;;;9.20;8.30;;;7.00;99.90;;;;;;5164772;27;20459;-92
2022/02/02 21:22:58;;;;;;;10.10;8.63;;;7.00;99.90;;;;;;5154786;27;20468;-90
2022/02/02 21:25:44;;;;;;;9.87;6.77;;;7.10;99.90;;;;;;5150050;27;20460;-93
2022/02/02 21:28:18;;;;;;;8.30;7.47;;;7.10;99.90;;;;;;5149487;27;20474;-91